Thetford, Vermont
Current Conditions -  °F | °C
As of 8:53 AM on Thursday 27 Nov 2014 (Local Time) from KLEB Reporting Station
Overcast Overcast  
Wind Chill: 22°   Ceiling: 2200
Heat Index: 30°   Visibility: 10mi
Dew Point: 23°   Wind: 8mph
Humidity: 75%   Direction: 330°NNW
Pressure: 29.93"   Gusts: NA
Location:  43.82°N, 72.23°W
Report Text: KLEB 271353Z 33007KT 10SM OVC022 M01/M05 A2993 RMK AO2 SLP144 T10111050
Loading
Personal Weather Stations






























Interactive Weather Map New forecast layout! Learn more

10-Day Weather Forecast

Advertisements
Track Severe Weather on mobile